createdAt,value
2019-05-20T00:01:18.873Z,92289.13
2019-05-20T00:03:52.318Z,92285.01
2019-05-20T00:06:25.253Z,92284.22
2019-05-20T00:08:58.123Z,92283.89
2019-05-20T00:11:31.017Z,92276.16
2019-05-20T00:14:03.728Z,92271.87
2019-05-20T00:16:36.823Z,92268.31
2019-05-20T00:19:09.799Z,92265.25
2019-05-20T00:21:42.609Z,92265.73
2019-05-20T00:24:15.997Z,92268.28
2019-05-20T00:26:48.897Z,92270.14
2019-05-20T00:29:21.770Z,92270.25
2019-05-20T00:31:55.268Z,92264.37
2019-05-20T00:34:35.258Z,92260.59
2019-05-20T00:37:02.864Z,92264.87
2019-05-20T00:39:35.725Z,92263.14
2019-05-20T00:42:08.443Z,92255.42
2019-05-20T00:44:41.563Z,92250.91
2019-05-20T00:47:15.101Z,92253.08
2019-05-20T00:49:48.379Z,92257.50
2019-05-20T00:52:21.196Z,92260.09
2019-05-20T00:54:54.034Z,92264.84
2019-05-20T00:57:27.303Z,92265.09
2019-05-20T01:00:00.135Z,92272.02
2019-05-20T01:02:33.005Z,92266.00
2019-05-20T01:05:06.198Z,92263.96
2019-05-20T01:07:38.934Z,92259.09
2019-05-20T01:10:11.811Z,92260.18
2019-05-20T01:12:45.042Z,92258.17
2019-05-20T01:15:17.803Z,92257.13
2019-05-20T01:17:50.533Z,92250.80
2019-05-20T01:20:23.833Z,92252.70
2019-05-20T01:22:56.650Z,92254.45
2019-05-20T01:25:29.407Z,92254.10
2019-05-20T01:28:02.196Z,92249.58
2019-05-20T01:30:35.183Z,92243.42
2019-05-20T01:33:13.883Z,92254.48
2019-05-20T01:35:42.388Z,92247.00
2019-05-20T01:38:15.390Z,92245.12
2019-05-20T01:40:48.516Z,92251.42
2019-05-20T01:43:21.489Z,92247.51
2019-05-20T01:45:54.388Z,92246.42
2019-05-20T01:48:27.162Z,92240.03
2019-05-20T01:51:00.017Z,92235.06
2019-05-20T01:53:32.958Z,92240.80
2019-05-20T01:56:05.733Z,92238.80
2019-05-20T01:58:39.689Z,92236.39
2019-05-20T02:01:13.284Z,92234.25
2019-05-20T02:03:46.049Z,92229.77
2019-05-20T02:06:19.084Z,92227.96
2019-05-20T02:08:51.794Z,92225.92
2019-05-20T02:11:24.588Z,92222.80
2019-05-20T02:14:05.106Z,92219.66
2019-05-20T02:16:38.581Z,92215.55
2019-05-20T02:19:11.945Z,92208.91
2019-05-20T02:21:45.262Z,92204.22
2019-05-20T02:24:17.979Z,92200.12
2019-05-20T02:26:51.047Z,92210.69
2019-05-20T02:29:25.178Z,92201.41
2019-05-20T02:31:58.645Z,92194.31
2019-05-20T02:34:31.420Z,92192.23
2019-05-20T02:37:04.145Z,92185.61
2019-05-20T02:39:37.080Z,92188.77
2019-05-20T02:42:09.874Z,92189.25
2019-05-20T02:44:42.923Z,92189.89
2019-05-20T02:47:15.728Z,92189.31
2019-05-20T02:49:49.140Z,92191.77
2019-05-20T02:52:22.205Z,92188.70
2019-05-20T02:54:55.026Z,92185.81
2019-05-20T02:57:28.421Z,92183.64
2019-05-20T03:00:01.450Z,92186.36
2019-05-20T03:02:34.474Z,92182.18
2019-05-20T03:05:07.899Z,92182.53
2019-05-20T03:07:40.813Z,92183.56
2019-05-20T03:10:13.633Z,92176.56
2019-05-20T03:12:46.385Z,92179.52
2019-05-20T03:15:19.340Z,92173.14
2019-05-20T03:17:52.338Z,92177.12
2019-05-20T03:20:25.168Z,92170.94
2019-05-20T03:22:58.314Z,92175.45
2019-05-20T03:25:31.100Z,92170.05
2019-05-20T03:28:04.633Z,92167.81
2019-05-20T03:30:37.599Z,92166.04
2019-05-20T03:33:10.468Z,92164.47
2019-05-20T03:35:43.170Z,92166.88
2019-05-20T03:38:16.281Z,92170.61
2019-05-20T03:40:49.040Z,92162.81
2019-05-20T03:43:22.214Z,92165.39
2019-05-20T03:45:55.516Z,92168.35
2019-05-20T03:48:28.373Z,92174.36
2019-05-20T03:51:01.649Z,92168.10
2019-05-20T03:53:34.421Z,92169.75
2019-05-20T03:56:07.318Z,92167.42
2019-05-20T03:58:40.130Z,92168.13
2019-05-20T04:01:13.134Z,92158.36
2019-05-20T04:03:46.250Z,92162.99
2019-05-20T04:06:19.405Z,92162.81
2019-05-20T04:08:52.216Z,92161.20
2019-05-20T04:11:25.370Z,92156.96
2019-05-20T04:13:58.251Z,92153.05
2019-05-20T04:16:31.070Z,92154.55
2019-05-20T04:19:04.049Z,92155.66
2019-05-20T04:21:36.778Z,92160.33
2019-05-20T04:24:09.601Z,92159.35
2019-05-20T04:26:42.604Z,92156.41
2019-05-20T04:29:15.484Z,92157.23
2019-05-20T04:31:48.292Z,92155.79
2019-05-20T04:34:21.069Z,92161.17
2019-05-20T04:36:54.534Z,92158.80
2019-05-20T04:39:27.603Z,92158.67
2019-05-20T04:42:00.522Z,92160.86
2019-05-20T04:44:33.419Z,92161.45
2019-05-20T04:47:06.261Z,92156.96
2019-05-20T04:49:39.005Z,92163.02
2019-05-20T04:52:11.761Z,92159.84
2019-05-20T04:54:44.548Z,92162.70
2019-05-20T04:57:17.507Z,92166.77
2019-05-20T04:59:50.490Z,92168.28
2019-05-20T05:02:23.332Z,92162.91
2019-05-20T05:04:56.536Z,92172.58
2019-05-20T05:07:29.336Z,92170.27
2019-05-20T05:10:02.387Z,92172.38
2019-05-20T05:12:35.255Z,92171.25
2019-05-20T05:15:08.295Z,92184.41
2019-05-20T05:17:41.797Z,92178.87
2019-05-20T05:20:18.198Z,92181.67
2019-05-20T05:22:49.243Z,92185.66
2019-05-20T05:25:22.050Z,92189.59
2019-05-20T05:27:55.156Z,92195.73
2019-05-20T05:30:27.964Z,92194.48
2019-05-20T05:33:00.826Z,92198.73
2019-05-20T05:35:33.674Z,92200.30
2019-05-20T05:38:06.729Z,92200.45
2019-05-20T05:40:39.938Z,92198.39
2019-05-20T05:43:12.694Z,92198.27
2019-05-20T05:45:45.558Z,92199.84
2019-05-20T05:48:18.424Z,92203.61
2019-05-20T05:50:51.688Z,92203.85
2019-05-20T05:53:24.414Z,92206.02
2019-05-20T05:55:57.288Z,92207.55
2019-05-20T05:58:30.297Z,92216.42
2019-05-20T06:01:03.471Z,92219.35
2019-05-20T06:03:36.518Z,92215.53
2019-05-20T06:06:12.514Z,92217.98
2019-05-20T06:08:45.109Z,92217.09
2019-05-20T06:11:17.885Z,92216.81
2019-05-20T06:13:50.763Z,92217.80
2019-05-20T06:16:35.806Z,92216.11
2019-05-20T06:18:58.197Z,92214.55
2019-05-20T06:21:31.469Z,92219.70
2019-05-20T06:24:04.154Z,92219.98
2019-05-20T06:26:37.013Z,92218.34
2019-05-20T06:29:09.736Z,92224.74
2019-05-20T06:31:42.529Z,92226.96
2019-05-20T06:34:15.410Z,92234.70
2019-05-20T06:36:49.836Z,92230.80
2019-05-20T06:39:22.858Z,92234.35
2019-05-20T06:41:56.283Z,92229.97
2019-05-20T06:44:29.033Z,92233.37
2019-05-20T06:47:01.937Z,92235.85
2019-05-20T06:49:34.680Z,92238.06
2019-05-20T06:52:07.425Z,92237.73
2019-05-20T06:54:40.220Z,92239.19
2019-05-20T06:57:13.460Z,92242.20
2019-05-20T06:59:46.420Z,92234.66
2019-05-20T07:02:19.193Z,92236.30
2019-05-20T07:04:52.544Z,92239.11
2019-05-20T07:07:25.738Z,92240.59
2019-05-20T07:09:59.247Z,92240.71
2019-05-20T07:12:40.655Z,92236.96
2019-05-20T07:15:06.724Z,92242.27
2019-05-20T07:17:39.570Z,92234.94
2019-05-20T07:20:12.679Z,92245.48
2019-05-20T07:22:55.865Z,92243.60
2019-05-20T07:25:19.982Z,92248.87
2019-05-20T07:27:52.908Z,92246.77
2019-05-20T07:30:25.729Z,92247.91
2019-05-20T07:32:58.548Z,92242.75
2019-05-20T07:35:31.814Z,92254.99
2019-05-20T07:38:04.533Z,92249.79
2019-05-20T07:40:37.335Z,92252.83
2019-05-20T07:43:10.073Z,92253.86
2019-05-20T07:45:43.552Z,92264.08
2019-05-20T07:48:17.514Z,92264.45
2019-05-20T07:50:50.568Z,92260.91
2019-05-20T07:53:23.477Z,92260.13
2019-05-20T07:55:56.370Z,92259.34
2019-05-20T07:58:29.324Z,92269.34
2019-05-20T08:01:02.707Z,92266.47
2019-05-20T08:03:38.619Z,92273.75
2019-05-20T08:06:10.577Z,92267.89
2019-05-20T08:08:43.649Z,92275.80
2019-05-20T08:11:16.758Z,92275.47
2019-05-20T08:13:49.697Z,92277.20
2019-05-20T08:16:22.590Z,92273.52
2019-05-20T08:18:55.414Z,92278.71
2019-05-20T08:21:28.297Z,92278.00
2019-05-20T08:24:01.260Z,92280.57
2019-05-20T08:26:34.202Z,92278.71
2019-05-20T08:29:07.494Z,92277.23
2019-05-20T08:31:40.328Z,92277.31
2019-05-20T08:34:13.078Z,92278.84
2019-05-20T08:36:46.128Z,92280.51
2019-05-20T08:39:18.848Z,92278.05
2019-05-20T08:41:51.565Z,92285.06
2019-05-20T08:44:24.276Z,92283.27
2019-05-20T08:46:57.454Z,92282.23
2019-05-20T08:49:30.994Z,92281.50
2019-05-20T08:52:03.834Z,92278.47
2019-05-20T08:54:40.270Z,92280.11
2019-05-20T08:57:11.585Z,92278.16
2019-05-20T08:59:44.870Z,92270.72
2019-05-20T09:02:17.545Z,92271.02
2019-05-20T09:04:50.370Z,92275.31
2019-05-20T09:07:23.907Z,92278.66
2019-05-20T09:09:56.789Z,92267.30
2019-05-20T09:12:29.558Z,92269.84
2019-05-20T09:15:02.517Z,92275.42
2019-05-20T09:17:38.848Z,92277.98
2019-05-20T09:20:09.881Z,92272.54
2019-05-20T09:22:42.940Z,92268.48
2019-05-20T09:25:15.969Z,92269.78
2019-05-20T09:27:49.183Z,92275.81
2019-05-20T09:30:22.541Z,92281.70
2019-05-20T09:32:55.806Z,92283.87
2019-05-20T09:35:28.880Z,92279.52
2019-05-20T09:38:17.344Z,92276.84
2019-05-20T09:40:36.983Z,92272.22
2019-05-20T09:43:10.378Z,92275.74
2019-05-20T09:45:43.194Z,92280.65
2019-05-20T09:48:15.939Z,92275.34
2019-05-20T09:50:49.056Z,92281.25
2019-05-20T09:53:21.734Z,92285.23
2019-05-20T09:55:54.530Z,92281.84
2019-05-20T09:58:27.678Z,92278.86
2019-05-20T10:01:00.408Z,92281.11
2019-05-20T10:03:33.094Z,92276.77
2019-05-20T10:06:06.013Z,92271.48
2019-05-20T10:08:44.456Z,92271.52
2019-05-20T10:11:13.825Z,92273.70
2019-05-20T10:13:46.764Z,92273.51
2019-05-20T10:16:19.960Z,92274.17
2019-05-20T10:18:55.533Z,92273.84
2019-05-20T10:21:28.274Z,92273.89
2019-05-20T10:24:01.133Z,92274.30
2019-05-20T10:26:34.196Z,92283.58
2019-05-20T10:29:07.150Z,92282.78
2019-05-20T10:31:39.981Z,92286.30
2019-05-20T10:34:13.164Z,92285.12
2019-05-20T10:36:46.151Z,92286.80
2019-05-20T10:39:19.061Z,92290.21
2019-05-20T10:41:51.843Z,92296.93
2019-05-20T10:44:24.627Z,92305.84
2019-05-20T10:46:57.381Z,92293.31
2019-05-20T10:49:30.509Z,92296.48
2019-05-20T10:52:03.409Z,92295.41
2019-05-20T10:54:36.594Z,92299.55
2019-05-20T10:57:09.732Z,92295.91
2019-05-20T10:59:43.289Z,92299.38
2019-05-20T11:02:16.739Z,92291.37
2019-05-20T11:04:49.499Z,92295.56
2019-05-20T11:07:22.402Z,92298.23
2019-05-20T11:09:55.404Z,92301.06
2019-05-20T11:12:28.433Z,92300.29
2019-05-20T11:15:02.374Z,92300.51
2019-05-20T11:17:35.850Z,92292.25
2019-05-20T11:20:09.420Z,92292.64
2019-05-20T11:22:42.521Z,92295.36
2019-05-20T11:25:15.249Z,92286.58
2019-05-20T11:27:48.114Z,92288.68
2019-05-20T11:30:20.855Z,92284.46
2019-05-20T11:32:53.833Z,92286.91
2019-05-20T11:35:26.650Z,92293.60
2019-05-20T11:37:59.654Z,92294.48
2019-05-20T11:40:32.448Z,92295.23
2019-05-20T11:43:05.393Z,92298.48
2019-05-20T11:45:38.319Z,92297.65
2019-05-20T11:48:11.244Z,92294.47
2019-05-20T11:50:44.090Z,92299.09
2019-05-20T11:53:17.003Z,92303.11
2019-05-20T11:55:51.240Z,92301.55
2019-05-20T11:58:23.958Z,92304.73
2019-05-20T12:00:56.917Z,92299.61
2019-05-20T12:03:29.814Z,92302.82
2019-05-20T12:06:03.481Z,92299.82
2019-05-20T12:08:37.365Z,92296.90
2019-05-20T12:11:10.493Z,92295.56
2019-05-20T12:13:43.323Z,92292.98
2019-05-20T12:16:16.079Z,92293.56
2019-05-20T12:18:49.604Z,92295.67
2019-05-20T12:21:22.663Z,92302.22
2019-05-20T12:23:55.428Z,92298.98
2019-05-20T12:26:28.212Z,92299.17
2019-05-20T12:29:00.968Z,92299.66
2019-05-20T12:31:34.033Z,92303.70
2019-05-20T12:34:06.909Z,92301.36
2019-05-20T12:36:40.513Z,92296.98
2019-05-20T12:39:13.398Z,92293.56
2019-05-20T12:41:46.325Z,92291.56
2019-05-20T12:44:19.706Z,92292.69
2019-05-20T12:46:54.019Z,92295.70
2019-05-20T12:49:28.773Z,92298.27
2019-05-20T12:52:01.521Z,92292.22
2019-05-20T12:54:34.451Z,92300.16
2019-05-20T12:57:07.273Z,92302.95
2019-05-20T12:59:40.054Z,92304.51
2019-05-20T13:02:17.171Z,92302.63
2019-05-20T13:04:51.059Z,92301.26
2019-05-20T13:07:24.350Z,92307.63
2019-05-20T13:09:57.160Z,92303.19
2019-05-20T13:12:29.905Z,92294.47
2019-05-20T13:15:02.802Z,92295.81
2019-05-20T13:17:35.896Z,92297.94
2019-05-20T13:20:09.242Z,92302.72
2019-05-20T13:22:44.039Z,92305.41
2019-05-20T13:25:16.687Z,92304.28
2019-05-20T13:27:49.409Z,92305.41
2019-05-20T13:30:22.289Z,92309.41
2019-05-20T13:32:55.043Z,92312.08
2019-05-20T13:35:28.689Z,92320.99
2019-05-20T13:38:01.348Z,92307.08
2019-05-20T13:40:46.048Z,92323.02
2019-05-20T13:43:09.061Z,92329.75
2019-05-20T13:45:42.029Z,92336.09
2019-05-20T13:48:14.777Z,92341.03
2019-05-20T13:50:47.584Z,92339.08
2019-05-20T13:53:20.285Z,92337.97
2019-05-20T13:55:53.160Z,92354.33
2019-05-20T13:58:26.291Z,92352.48
2019-05-20T14:00:59.146Z,92346.83
2019-05-20T14:03:32.371Z,92344.38
2019-05-20T14:06:05.336Z,92338.89
2019-05-20T14:08:38.297Z,92331.92
2019-05-20T14:11:11.185Z,92339.02
2019-05-20T14:13:44.024Z,92332.70
2019-05-20T14:16:16.894Z,92325.67
2019-05-20T14:18:49.668Z,92320.91
2019-05-20T14:21:22.519Z,92329.23
2019-05-20T14:23:55.184Z,92321.66
2019-05-20T14:26:28.009Z,92325.23
2019-05-20T14:29:00.738Z,92316.31
2019-05-20T14:31:33.488Z,92322.77
2019-05-20T14:34:07.488Z,92323.76
2019-05-20T14:36:40.610Z,92312.64
2019-05-20T14:39:13.798Z,92313.41
2019-05-20T14:41:46.771Z,92310.09
2019-05-20T14:44:19.998Z,92315.88
2019-05-20T14:46:52.948Z,92305.89
2019-05-20T14:49:25.810Z,92310.16
2019-05-20T14:51:59.024Z,92304.20
2019-05-20T14:54:31.883Z,92310.41
2019-05-20T14:57:04.723Z,92310.99
2019-05-20T14:59:37.708Z,92322.71
2019-05-20T15:02:11.101Z,92315.04
2019-05-20T15:04:43.994Z,92322.28
2019-05-20T15:07:29.074Z,92317.75
2019-05-20T15:09:51.164Z,92320.95
2019-05-20T15:12:23.970Z,92320.99
2019-05-20T15:14:56.789Z,92321.95
2019-05-20T15:17:29.569Z,92324.48
2019-05-20T15:20:02.563Z,92322.21
2019-05-20T15:22:35.479Z,92327.92
2019-05-20T15:25:08.306Z,92330.59
2019-05-20T15:27:41.423Z,92329.03
2019-05-20T15:30:14.233Z,92329.24
2019-05-20T15:32:48.152Z,92337.27
2019-05-20T15:35:21.029Z,92333.26
2019-05-20T15:37:53.969Z,92332.59
2019-05-20T15:40:26.840Z,92335.50
2019-05-20T15:42:59.578Z,92335.54
2019-05-20T15:45:32.374Z,92330.55
2019-05-20T15:48:05.170Z,92328.81
2019-05-20T15:50:38.608Z,92331.70
2019-05-20T15:53:12.570Z,92334.82
2019-05-20T15:55:45.895Z,92331.36
2019-05-20T15:58:18.636Z,92325.79
2019-05-20T16:00:51.544Z,92329.02
2019-05-20T16:03:24.379Z,92329.41
2019-05-20T16:05:59.815Z,92333.16
2019-05-20T16:08:31.741Z,92325.41
2019-05-20T16:11:06.754Z,92328.66
2019-05-20T16:13:38.938Z,92327.00
2019-05-20T16:16:13.100Z,92330.34
2019-05-20T16:18:46.362Z,92336.48
2019-05-20T16:21:19.056Z,92331.86
2019-05-20T16:23:51.964Z,92329.00
2019-05-20T16:26:24.604Z,92337.71
2019-05-20T16:28:58.005Z,92336.66
2019-05-20T16:31:31.127Z,92338.84
2019-05-20T16:34:03.884Z,92335.05
2019-05-20T16:36:36.792Z,92338.77
2019-05-20T16:39:09.579Z,92336.54
2019-05-20T16:41:42.393Z,92333.53
2019-05-20T16:44:15.253Z,92335.08
2019-05-20T16:46:48.212Z,92336.42
2019-05-20T16:49:20.926Z,92331.92
2019-05-20T16:51:53.735Z,92337.02
2019-05-20T16:54:26.539Z,92329.00
2019-05-20T16:56:59.264Z,92336.02
2019-05-20T16:59:32.139Z,92335.80
2019-05-20T17:02:04.819Z,92331.86
2019-05-20T17:04:38.409Z,92327.58
2019-05-20T17:07:11.164Z,92325.28
2019-05-20T17:09:44.554Z,92326.96
2019-05-20T17:12:18.924Z,92324.29
2019-05-20T17:14:51.643Z,92328.23
2019-05-20T17:17:24.413Z,92322.19
2019-05-20T17:19:57.159Z,92324.92
2019-05-20T17:22:30.013Z,92334.25
2019-05-20T17:25:02.777Z,92331.05
2019-05-20T17:27:35.489Z,92329.24
2019-05-20T17:30:08.391Z,92322.66
2019-05-20T17:32:41.258Z,92320.58
2019-05-20T17:35:14.386Z,92322.75
2019-05-20T17:37:47.212Z,92325.05
2019-05-20T17:40:20.123Z,92324.58
2019-05-20T17:42:52.914Z,92329.31
2019-05-20T17:45:25.831Z,92328.34
2019-05-20T17:47:58.684Z,92334.17
2019-05-20T17:50:31.414Z,92333.52
2019-05-20T17:53:04.125Z,92333.72
2019-05-20T17:55:36.994Z,92332.58
2019-05-20T17:58:09.985Z,92330.33
2019-05-20T18:00:43.091Z,92331.16
2019-05-20T18:03:15.848Z,92331.75
2019-05-20T18:05:48.734Z,92336.53
2019-05-20T18:08:24.569Z,92330.28
2019-05-20T18:10:56.206Z,92337.19
2019-05-20T18:13:29.003Z,92329.96
2019-05-20T18:16:01.716Z,92329.27
2019-05-20T18:18:35.178Z,92324.78
2019-05-20T18:21:08.149Z,92320.31
2019-05-20T18:23:40.765Z,92320.47
2019-05-20T18:26:13.998Z,92321.03
2019-05-20T18:28:46.853Z,92323.22
2019-05-20T18:31:31.839Z,92324.31
2019-05-20T18:33:53.978Z,92327.20
2019-05-20T18:36:27.163Z,92329.23
2019-05-20T18:39:00.423Z,92334.00
2019-05-20T18:41:33.159Z,92332.77
2019-05-20T18:44:05.884Z,92331.50
2019-05-20T18:46:39.023Z,92343.09
2019-05-20T18:49:11.749Z,92333.53
2019-05-20T18:51:44.799Z,92340.05
2019-05-20T18:54:17.558Z,92343.09
2019-05-20T18:56:50.572Z,92342.25
2019-05-20T18:59:23.499Z,92349.94
2019-05-20T19:02:04.991Z,92348.14
2019-05-20T19:04:30.678Z,92349.59
2019-05-20T19:07:03.491Z,92353.38
2019-05-20T19:09:36.456Z,92350.66
2019-05-20T19:12:10.042Z,92358.27
2019-05-20T19:14:42.845Z,92365.48
2019-05-20T19:17:15.667Z,92374.00
2019-05-20T19:19:48.920Z,92377.20
2019-05-20T19:22:21.837Z,92379.44
2019-05-20T19:24:54.526Z,92386.87
2019-05-20T19:27:28.032Z,92386.00
2019-05-20T19:30:00.609Z,92382.70
2019-05-20T19:32:33.565Z,92380.23
2019-05-20T19:35:06.262Z,92387.52
2019-05-20T19:37:39.904Z,92392.91
2019-05-20T19:40:13.359Z,92389.56
2019-05-20T19:42:46.281Z,92391.09
2019-05-20T19:45:19.098Z,92393.38
2019-05-20T19:47:52.051Z,92395.30
2019-05-20T19:50:25.105Z,92394.69
2019-05-20T19:52:58.531Z,92398.33
2019-05-20T19:55:31.431Z,92396.22
2019-05-20T19:58:04.226Z,92393.96
2019-05-20T20:00:37.195Z,92406.16
2019-05-20T20:03:09.982Z,92404.67
2019-05-20T20:05:42.665Z,92394.91
2019-05-20T20:08:16.040Z,92402.05
2019-05-20T20:10:49.160Z,92401.11
2019-05-20T20:13:21.871Z,92395.77
2019-05-20T20:15:54.680Z,92396.86
2019-05-20T20:18:27.836Z,92395.09
2019-05-20T20:21:00.625Z,92408.65
2019-05-20T20:23:33.561Z,92408.54
2019-05-20T20:26:06.371Z,92405.73
2019-05-20T20:28:40.270Z,92405.84
2019-05-20T20:31:12.943Z,92408.19
2019-05-20T20:33:45.729Z,92416.91
2019-05-20T20:36:21.235Z,92421.61
2019-05-20T20:38:53.002Z,92422.50
2019-05-20T20:41:26.642Z,92421.14
2019-05-20T20:43:59.403Z,92424.58
2019-05-20T20:46:32.208Z,92425.72
2019-05-20T20:49:04.928Z,92427.49
2019-05-20T20:51:37.749Z,92427.91
2019-05-20T20:54:10.568Z,92424.87
2019-05-20T20:56:43.328Z,92426.20
2019-05-20T20:59:16.353Z,92430.16
2019-05-20T21:01:49.393Z,92429.50
2019-05-20T21:04:22.289Z,92432.83
2019-05-20T21:06:55.019Z,92431.31
2019-05-20T21:09:27.779Z,92438.83
2019-05-20T21:12:00.575Z,92437.99
2019-05-20T21:14:33.758Z,92443.91
2019-05-20T21:17:06.534Z,92442.21
2019-05-20T21:19:39.463Z,92444.86
2019-05-20T21:22:13.309Z,92441.00
2019-05-20T21:24:46.035Z,92445.99
2019-05-20T21:27:18.857Z,92446.17
2019-05-20T21:29:52.039Z,92446.77
2019-05-20T21:32:24.928Z,92450.55
2019-05-20T21:34:57.748Z,92452.30
2019-05-20T21:37:31.358Z,92451.91
2019-05-20T21:40:04.124Z,92448.14
2019-05-20T21:42:37.450Z,92462.18
2019-05-20T21:45:10.488Z,92455.61
2019-05-20T21:47:44.812Z,92450.14
2019-05-20T21:50:17.884Z,92449.31
2019-05-20T21:52:51.155Z,92455.49
2019-05-20T21:55:23.893Z,92452.12
2019-05-20T21:57:57.088Z,92456.33
2019-05-20T22:00:37.843Z,92452.73
2019-05-20T22:03:23.616Z,92462.22
2019-05-20T22:05:45.215Z,92461.96
2019-05-20T22:08:17.961Z,92464.37
2019-05-20T22:10:50.867Z,92465.65
2019-05-20T22:13:23.799Z,92464.77
2019-05-20T22:15:56.613Z,92466.99
2019-05-20T22:18:29.529Z,92465.91
2019-05-20T22:21:02.395Z,92474.05
2019-05-20T22:23:42.858Z,92470.13
2019-05-20T22:26:15.763Z,92466.88
2019-05-20T22:28:48.488Z,92468.78
2019-05-20T22:31:21.584Z,92464.41
2019-05-20T22:33:54.737Z,92470.95
2019-05-20T22:36:27.549Z,92464.88
2019-05-20T22:39:00.598Z,92474.70
2019-05-20T22:41:33.444Z,92470.91
2019-05-20T22:44:06.638Z,92465.15
2019-05-20T22:46:39.862Z,92466.44
2019-05-20T22:49:12.913Z,92466.99
2019-05-20T22:51:45.786Z,92455.02
2019-05-20T22:54:18.576Z,92461.97
2019-05-20T22:56:51.350Z,92456.03
2019-05-20T22:59:24.128Z,92447.80
2019-05-20T23:01:56.838Z,92444.17
2019-05-20T23:04:29.593Z,92441.33
2019-05-20T23:07:02.845Z,92437.20
2019-05-20T23:09:35.669Z,92439.96
2019-05-20T23:12:08.579Z,92443.15
2019-05-20T23:14:41.281Z,92426.22
2019-05-20T23:17:14.170Z,92430.49
2019-05-20T23:19:46.865Z,92430.80
2019-05-20T23:22:19.739Z,92432.84
2019-05-20T23:24:52.479Z,92428.22
2019-05-20T23:27:25.774Z,92422.25
2019-05-20T23:29:58.710Z,92419.34
2019-05-20T23:32:31.997Z,92424.63
2019-05-20T23:35:05.883Z,92415.47
2019-05-20T23:37:38.614Z,92410.88
2019-05-20T23:40:11.419Z,92407.69
2019-05-20T23:42:44.233Z,92419.34
2019-05-20T23:45:17.328Z,92408.66
2019-05-20T23:47:50.154Z,92408.70
2019-05-20T23:50:22.989Z,92407.54
2019-05-20T23:52:56.061Z,92407.92
2019-05-20T23:55:29.123Z,92405.14
2019-05-20T23:58:02.318Z,92405.43
